Time;durP1;ratioP1;P1;durP2;ratioP2;P2;SDS_P1;SDS_P2;PMS_P1;PMS_P2;Temp;Humidity;BMP_temperature;BMP_pressure;BME280_temperature;BME280_humidity;BME280_pressure;Samples;Min_cycle;Max_cycle;Signal;HPM_P1;HPM_P2
2020/12/02 00:02:06;;;;;;;69.78;38.05;;;22.50;29.70;;;;;;6262887;27;83651;-62
2020/12/02 00:05:06;;;;;;;71.15;38.25;;;22.50;29.70;;;;;;6259571;27;83069;-63
2020/12/02 00:08:07;;;;;;;70.35;36.90;;;22.50;30.10;;;;;;6246920;27;83730;-62
2020/12/02 00:11:07;;;;;;;66.75;37.90;;;22.40;30.80;;;;;;6258211;27;83527;-63
2020/12/02 00:14:08;;;;;;;64.60;37.15;;;22.40;29.90;;;;;;6251082;27;83510;-61
2020/12/02 00:17:08;;;;;;;72.10;39.05;;;22.40;29.90;;;;;;6271331;27;84134;-62
2020/12/02 00:20:09;;;;;;;71.63;38.63;;;22.40;30.60;;;;;;6261409;27;84824;-62
2020/12/02 00:23:09;;;;;;;69.25;38.15;;;22.40;30.00;;;;;;6260816;27;83628;-63
2020/12/02 00:26:10;;;;;;;69.63;39.55;;;22.40;30.00;;;;;;6263161;27;83370;-63
2020/12/02 00:29:10;;;;;;;78.88;40.22;;;22.40;30.00;;;;;;6271448;27;83221;-63
2020/12/02 00:32:11;;;;;;;67.70;37.03;;;22.40;30.10;;;;;;6253987;27;84053;-63
2020/12/02 00:35:11;;;;;;;64.10;38.55;;;22.40;30.00;;;;;;6262351;27;83600;-63
2020/12/02 00:38:12;;;;;;;66.43;38.28;;;22.30;30.00;;;;;;6271936;27;83156;-62
2020/12/02 00:41:13;;;;;;;63.85;36.67;;;22.40;30.00;;;;;;6266080;27;83837;-64
2020/12/02 00:44:13;;;;;;;65.18;37.45;;;22.30;29.90;;;;;;6270787;27;84331;-64
2020/12/02 00:47:14;;;;;;;69.85;37.95;;;22.30;29.90;;;;;;6262008;27;84875;-63
2020/12/02 00:50:14;;;;;;;66.97;37.10;;;22.30;30.00;;;;;;6254931;27;85778;-63
2020/12/02 00:53:15;;;;;;;63.42;36.65;;;22.30;29.90;;;;;;6251997;27;85000;-62
2020/12/02 00:56:16;;;;;;;63.92;36.67;;;22.30;29.90;;;;;;6267812;27;84616;-62
2020/12/02 00:59:17;;;;;;;61.70;35.75;;;22.30;29.90;;;;;;6268292;27;85772;-62
2020/12/02 01:02:18;;;;;;;68.68;37.10;;;22.30;29.90;;;;;;6272087;27;83497;-62
2020/12/02 01:05:18;;;;;;;62.05;35.08;;;22.30;29.90;;;;;;6259065;27;83399;-62
2020/12/02 01:08:19;;;;;;;67.20;36.20;;;22.30;29.90;;;;;;6255751;27;84160;-62
2020/12/02 01:11:19;;;;;;;62.45;35.50;;;22.30;29.90;;;;;;6268949;27;83163;-62
2020/12/02 01:14:20;;;;;;;66.30;35.95;;;22.30;29.90;;;;;;6264738;27;82932;-62
2020/12/02 01:17:20;;;;;;;62.85;35.88;;;22.30;29.80;;;;;;6270858;27;86894;-62
2020/12/02 01:20:21;;;;;;;62.25;35.47;;;22.30;29.90;;;;;;6260976;27;84019;-63
2020/12/02 01:23:21;;;;;;;62.28;35.75;;;22.30;29.90;;;;;;6260677;27;83373;-62
2020/12/02 01:26:22;;;;;;;58.58;34.90;;;22.30;29.90;;;;;;6261093;27;83185;-63
2020/12/02 01:29:22;;;;;;;64.13;36.17;;;22.30;29.80;;;;;;6262493;27;83505;-62
2020/12/02 01:32:23;;;;;;;62.03;36.45;;;22.30;29.90;;;;;;6262707;27;84017;-62
2020/12/02 01:35:23;;;;;;;65.40;36.05;;;22.30;29.90;;;;;;6262070;27;83907;-62
2020/12/02 01:38:24;;;;;;;66.35;36.60;;;22.30;29.80;;;;;;6271834;27;83465;-62
2020/12/02 01:41:24;;;;;;;65.72;37.30;;;22.30;29.80;;;;;;6265256;27;83512;-61
2020/12/02 01:44:25;;;;;;;66.38;36.13;;;22.30;29.80;;;;;;6273189;27;84576;-62
2020/12/02 01:47:25;;;;;;;63.85;35.33;;;22.30;29.80;;;;;;6271500;27;83228;-62
2020/12/02 01:50:26;;;;;;;65.78;36.40;;;22.30;29.70;;;;;;6267263;27;84737;-62
2020/12/02 01:53:27;;;;;;;62.95;35.22;;;22.30;29.80;;;;;;6258184;27;83541;-62
2020/12/02 01:56:27;;;;;;;63.47;35.00;;;22.30;29.80;;;;;;6269674;27;83051;-61
2020/12/02 01:59:28;;;;;;;67.07;35.60;;;22.30;29.80;;;;;;6274062;27;83451;-61
2020/12/02 02:02:29;;;;;;;67.80;37.15;;;22.30;29.70;;;;;;6273060;27;84180;-65
2020/12/02 02:05:30;;;;;;;67.68;35.95;;;22.30;29.70;;;;;;6253549;27;83114;-63
2020/12/02 02:08:30;;;;;;;65.38;36.85;;;22.30;29.70;;;;;;6267009;27;87429;-63
2020/12/02 02:11:31;;;;;;;75.40;38.15;;;22.30;29.60;;;;;;6269699;27;83913;-63
2020/12/02 02:14:31;;;;;;;71.07;39.80;;;22.20;29.60;;;;;;6274171;27;85034;-63
2020/12/02 02:17:32;;;;;;;75.38;39.70;;;22.20;29.80;;;;;;6263561;27;83595;-62
2020/12/02 02:20:33;;;;;;;71.95;38.88;;;22.20;29.70;;;;;;6266451;27;83409;-62
2020/12/02 02:23:33;;;;;;;69.60;38.90;;;22.20;29.50;;;;;;6252038;27;84623;-62
2020/12/02 02:26:34;;;;;;;74.97;40.55;;;22.20;29.60;;;;;;6272993;27;83173;-62
2020/12/02 02:29:34;;;;;;;74.35;39.92;;;22.20;29.50;;;;;;6255035;27;84096;-62
2020/12/02 02:32:35;;;;;;;71.25;39.83;;;22.20;29.60;;;;;;6266820;27;83263;-63
2020/12/02 02:35:35;;;;;;;72.93;40.38;;;22.20;29.60;;;;;;6256020;27;85838;-62
2020/12/02 02:38:36;;;;;;;79.22;41.33;;;22.10;29.50;;;;;;6260589;27;83376;-62
2020/12/02 02:41:36;;;;;;;78.05;40.55;;;22.20;29.50;;;;;;6259438;27;83552;-61
2020/12/02 02:44:37;;;;;;;65.22;37.08;;;22.20;29.70;;;;;;6260976;27;83842;-62
2020/12/02 02:47:37;;;;;;;73.10;39.20;;;22.20;29.80;;;;;;6258413;27;84267;-61
2020/12/02 02:50:38;;;;;;;70.35;38.00;;;22.20;30.20;;;;;;6256147;27;85608;-61
2020/12/02 02:53:38;;;;;;;74.88;40.50;;;22.20;30.40;;;;;;6266461;27;85752;-62
2020/12/02 02:56:39;;;;;;;74.90;39.25;;;22.20;30.90;;;;;;6272765;27;83905;-62
2020/12/02 02:59:40;;;;;;;69.13;37.63;;;22.20;30.60;;;;;;6268724;27;83314;-61
2020/12/02 03:02:40;;;;;;;74.25;39.33;;;22.20;30.50;;;;;;6261267;27;83720;-62
2020/12/02 03:05:41;;;;;;;80.25;40.60;;;22.20;30.30;;;;;;6271327;27;83740;-62
2020/12/02 03:08:41;;;;;;;72.53;38.45;;;22.20;30.50;;;;;;6267165;27;83384;-62
2020/12/02 03:11:42;;;;;;;72.53;40.13;;;22.10;30.20;;;;;;6270650;27;83262;-63
2020/12/02 03:14:42;;;;;;;73.30;37.85;;;22.20;30.10;;;;;;6269023;27;83463;-63
2020/12/02 03:17:43;;;;;;;74.28;37.97;;;22.20;30.30;;;;;;6260692;27;83389;-62
2020/12/02 03:20:43;;;;;;;70.70;36.85;;;22.20;30.30;;;;;;6262596;27;84477;-62
2020/12/02 03:23:44;;;;;;;80.30;40.90;;;22.20;30.50;;;;;;6266050;27;84205;-61
2020/12/02 03:26:44;;;;;;;76.28;40.08;;;22.20;30.30;;;;;;6258757;27;83308;-62
2020/12/02 03:29:45;;;;;;;64.60;35.90;;;22.20;30.30;;;;;;6270178;27;84206;-63
2020/12/02 03:32:45;;;;;;;69.43;36.97;;;22.20;30.40;;;;;;6262657;27;86896;-62
2020/12/02 03:35:46;;;;;;;66.80;35.58;;;22.20;30.10;;;;;;6250681;27;83198;-62
2020/12/02 03:38:46;;;;;;;68.68;36.83;;;22.20;30.10;;;;;;6262855;27;83742;-62
2020/12/02 03:41:47;;;;;;;63.95;34.00;;;22.20;30.40;;;;;;6268018;27;85148;-62
2020/12/02 03:44:48;;;;;;;66.10;35.83;;;22.10;30.00;;;;;;6271355;27;83608;-62
2020/12/02 03:47:48;;;;;;;66.63;36.05;;;22.10;30.00;;;;;;6272153;27;83409;-62
2020/12/02 03:50:49;;;;;;;63.40;35.47;;;22.10;30.10;;;;;;6271622;27;84202;-62
2020/12/02 03:53:49;;;;;;;68.55;37.67;;;22.10;29.70;;;;;;6256003;27;83066;-63
2020/12/02 03:56:50;;;;;;;67.70;36.72;;;22.10;30.00;;;;;;6263030;27;83261;-62
2020/12/02 03:59:50;;;;;;;64.78;37.13;;;22.10;30.00;;;;;;6252473;27;83999;-62
2020/12/02 04:02:51;;;;;;;66.70;36.03;;;22.10;29.80;;;;;;6267122;27;85931;-62
2020/12/02 04:05:52;;;;;;;63.20;37.40;;;22.10;29.70;;;;;;6270510;27;83603;-62
2020/12/02 04:08:52;;;;;;;60.75;35.85;;;22.10;29.70;;;;;;6271243;27;83571;-62
2020/12/02 04:11:53;;;;;;;66.32;36.60;;;22.10;29.60;;;;;;6271614;27;83986;-62
2020/12/02 04:14:53;;;;;;;64.20;35.83;;;22.10;29.90;;;;;;6268065;27;85829;-61
2020/12/02 04:17:54;;;;;;;61.30;34.03;;;22.10;29.60;;;;;;6266445;27;84410;-62
2020/12/02 04:20:54;;;;;;;59.17;33.63;;;22.00;29.80;;;;;;6266486;27;83336;-62
2020/12/02 04:23:55;;;;;;;54.97;32.38;;;22.00;29.70;;;;;;6250533;27;83934;-63
2020/12/02 04:26:56;;;;;;;61.88;33.70;;;22.00;29.50;;;;;;6268590;27;83345;-62
2020/12/02 04:29:56;;;;;;;61.60;34.90;;;22.00;29.70;;;;;;6264768;27;85952;-62
2020/12/02 04:32:57;;;;;;;57.15;32.53;;;22.00;29.60;;;;;;6264917;27;83100;-62
2020/12/02 04:35:57;;;;;;;54.85;30.73;;;22.00;29.60;;;;;;6266523;27;85941;-61
2020/12/02 04:38:58;;;;;;;61.50;33.03;;;22.00;29.70;;;;;;6265824;27;83334;-62
2020/12/02 04:41:58;;;;;;;58.53;32.10;;;22.00;29.60;;;;;;6264255;27;83466;-62
2020/12/02 04:44:59;;;;;;;57.63;32.92;;;22.00;29.80;;;;;;6267915;27;83308;-62
2020/12/02 04:47:59;;;;;;;57.47;32.10;;;22.00;30.00;;;;;;6264428;27;84542;-62
2020/12/02 04:51:00;;;;;;;61.97;33.80;;;22.00;29.90;;;;;;6265393;27;84021;-61
2020/12/02 04:54:00;;;;;;;59.97;32.42;;;22.00;29.60;;;;;;6261028;27;85741;-62
2020/12/02 04:57:01;;;;;;;59.88;32.47;;;22.00;29.70;;;;;;6266602;27;84103;-63
2020/12/02 05:00:01;;;;;;;55.35;32.85;;;22.00;29.70;;;;;;6255418;27;85169;-62
2020/12/02 05:03:02;;;;;;;53.15;30.52;;;22.00;29.60;;;;;;6263160;27;83568;-63
2020/12/02 05:06:02;;;;;;;55.13;30.52;;;22.00;29.70;;;;;;6246327;27;84043;-62
2020/12/02 05:09:03;;;;;;;56.15;31.35;;;22.00;29.50;;;;;;6269598;27;83205;-63
2020/12/02 05:12:04;;;;;;;57.85;30.88;;;21.90;29.60;;;;;;6266948;27;83163;-61
2020/12/02 05:15:05;;;;;;;57.10;29.95;;;22.00;29.80;;;;;;6274082;27;85113;-61
2020/12/02 05:18:06;;;;;;;54.83;31.23;;;22.00;29.60;;;;;;6265687;27;85270;-61
2020/12/02 05:21:06;;;;;;;54.08;29.98;;;22.00;29.60;;;;;;6270559;27;84110;-61
2020/12/02 05:24:07;;;;;;;52.40;29.73;;;22.00;29.90;;;;;;6259216;27;83548;-61
2020/12/02 05:27:07;;;;;;;49.67;28.73;;;22.00;30.00;;;;;;6270293;27;84022;-62
2020/12/02 05:30:08;;;;;;;54.70;30.55;;;22.00;30.00;;;;;;6274244;27;83491;-64
2020/12/02 05:33:08;;;;;;;45.50;27.25;;;22.00;30.00;;;;;;6270334;27;85127;-67
2020/12/02 05:36:09;;;;;;;51.33;24.98;;;22.10;30.50;;;;;;6269547;27;83344;-66
2020/12/02 05:39:09;;;;;;;50.03;23.42;;;22.10;32.90;;;;;;6274772;27;83488;-66
2020/12/02 05:42:10;;;;;;;33.88;20.23;;;22.10;34.50;;;;;;6270022;27;84777;-67
2020/12/02 05:45:10;;;;;;;37.15;20.60;;;22.10;34.90;;;;;;6272178;27;84036;-66
2020/12/02 05:48:11;;;;;;;34.17;18.17;;;22.10;36.10;;;;;;6265248;27;83385;-67
2020/12/02 05:51:11;;;;;;;35.20;18.98;;;22.10;36.30;;;;;;6262135;27;90053;-67
2020/12/02 05:54:12;;;;;;;34.35;18.50;;;22.20;36.30;;;;;;6264818;27;83422;-67
2020/12/02 05:57:12;;;;;;;30.42;17.25;;;22.20;35.50;;;;;;6261862;27;83442;-67
2020/12/02 06:00:13;;;;;;;39.22;18.55;;;22.20;36.40;;;;;;6267160;27;84202;-67
2020/12/02 06:03:14;;;;;;;34.53;17.98;;;22.20;36.40;;;;;;6260299;27;83416;-67
2020/12/02 06:06:14;;;;;;;31.67;17.33;;;22.30;36.60;;;;;;6271185;27;83429;-67
2020/12/02 06:09:15;;;;;;;29.30;17.55;;;22.30;36.00;;;;;;6267119;27;83523;-67
2020/12/02 06:12:15;;;;;;;35.08;17.80;;;22.40;36.20;;;;;;6267500;27;84020;-67
2020/12/02 06:15:16;;;;;;;30.67;17.23;;;22.40;35.70;;;;;;6265216;27;83415;-65
2020/12/02 06:18:16;;;;;;;30.05;17.08;;;22.50;36.40;;;;;;6266139;27;83178;-66
2020/12/02 06:21:17;;;;;;;34.53;18.42;;;22.50;36.30;;;;;;6263736;27;83619;-67
2020/12/02 06:24:17;;;;;;;34.33;18.30;;;22.60;35.80;;;;;;6273164;27;83158;-68
2020/12/02 06:27:18;;;;;;;33.95;19.10;;;22.60;35.60;;;;;;6262391;27;83811;-67
2020/12/02 06:30:18;;;;;;;32.33;18.58;;;22.60;35.30;;;;;;6267738;27;83088;-65
2020/12/02 06:33:19;;;;;;;36.13;20.15;;;22.60;35.80;;;;;;6274948;27;84022;-66
2020/12/02 06:36:19;;;;;;;39.65;20.13;;;22.60;35.10;;;;;;6275338;27;83136;-67
2020/12/02 06:39:20;;;;;;;40.13;20.63;;;22.60;34.90;;;;;;6250422;27;84492;-66
2020/12/02 06:42:20;;;;;;;37.08;21.35;;;22.60;35.30;;;;;;6270676;27;85413;-66
2020/12/02 06:45:21;;;;;;;38.42;20.38;;;22.50;34.80;;;;;;6268411;27;86147;-67
2020/12/02 06:48:21;;;;;;;32.30;17.85;;;22.50;35.10;;;;;;6258686;27;83223;-66
2020/12/02 06:51:22;;;;;;;26.40;15.38;;;22.50;35.70;;;;;;6261169;27;82881;-66
2020/12/02 06:54:22;;;;;;;25.40;15.27;;;22.40;36.20;;;;;;6266850;27;85838;-69
2020/12/02 06:57:23;;;;;;;26.30;15.30;;;22.40;36.70;;;;;;6268616;27;84067;-67
2020/12/02 07:00:24;;;;;;;25.60;13.93;;;22.40;36.70;;;;;;6266428;27;83017;-66
2020/12/02 07:03:25;;;;;;;27.98;13.85;;;22.40;37.10;;;;;;6259620;27;84297;-66
2020/12/02 07:06:25;;;;;;;24.83;13.73;;;22.40;36.90;;;;;;6261962;27;85005;-66
2020/12/02 07:09:26;;;;;;;25.00;13.32;;;22.30;37.30;;;;;;6265350;27;84981;-66
2020/12/02 07:12:26;;;;;;;21.08;11.55;;;22.30;37.30;;;;;;6264287;27;85008;-66
2020/12/02 07:15:27;;;;;;;22.83;12.32;;;22.30;37.50;;;;;;6272377;27;87116;-66
2020/12/02 07:18:28;;;;;;;19.55;11.57;;;22.20;37.50;;;;;;6270930;27;83687;-66
2020/12/02 07:21:30;;;;;;;17.42;11.98;;;22.20;37.40;;;;;;6262116;27;83172;-67
2020/12/02 07:24:31;;;;;;;19.80;11.70;;;22.20;37.30;;;;;;6260227;27;85397;-66
2020/12/02 07:27:31;;;;;;;24.42;12.95;;;22.20;37.30;;;;;;6273037;27;83794;-66
2020/12/02 07:30:32;;;;;;;21.83;12.40;;;22.10;37.20;;;;;;6261311;27;83701;-66
2020/12/02 07:33:36;;;;;;;19.42;11.90;;;22.20;37.30;;;;;;6266970;27;83417;-67
2020/12/02 07:36:37;;;;;;;22.17;13.07;;;22.20;37.00;;;;;;6271173;27;83254;-67
2020/12/02 07:39:38;;;;;;;20.52;12.27;;;22.20;37.00;;;;;;6253495;27;83075;-67
2020/12/02 07:42:38;;;;;;;20.02;11.95;;;22.20;36.90;;;;;;6267025;27;84179;-68
2020/12/02 07:45:39;;;;;;;17.58;10.77;;;22.20;36.70;;;;;;6262826;27;83108;-67
2020/12/02 07:48:40;;;;;;;21.73;11.13;;;22.30;36.70;;;;;;6267029;27;83186;-67
2020/12/02 07:51:41;;;;;;;18.42;11.07;;;22.30;36.60;;;;;;6265813;27;83505;-67
2020/12/02 07:54:41;;;;;;;19.90;11.55;;;22.20;36.80;;;;;;6265385;27;86194;-68
2020/12/02 07:57:42;;;;;;;18.92;11.02;;;22.30;36.70;;;;;;6270865;27;83315;-68
2020/12/02 08:00:43;;;;;;;16.80;10.48;;;22.30;36.60;;;;;;6271332;27;82945;-68
2020/12/02 08:03:44;;;;;;;19.05;10.68;;;22.30;36.70;;;;;;6270890;27;82798;-68
2020/12/02 08:06:44;;;;;;;23.67;10.73;;;22.30;37.20;;;;;;6272299;27;83121;-68
2020/12/02 08:09:45;;;;;;;18.75;10.80;;;22.30;37.20;;;;;;6266964;27;84708;-66
2020/12/02 08:12:45;;;;;;;23.08;11.45;;;22.30;37.40;;;;;;6266305;27;86220;-67
2020/12/02 08:15:46;;;;;;;18.00;11.05;;;22.30;37.30;;;;;;6252800;27;83370;-68
2020/12/02 08:18:46;;;;;;;21.73;10.93;;;22.30;37.40;;;;;;6270947;27;85890;-64
2020/12/02 08:21:47;;;;;;;21.65;11.70;;;22.30;37.20;;;;;;6248050;27;83451;-63
2020/12/02 08:24:48;;;;;;;21.73;12.35;;;22.30;37.40;;;;;;6268555;27;83379;-63
2020/12/02 08:27:49;;;;;;;24.58;12.30;;;22.30;37.30;;;;;;6262220;27;83761;-62
2020/12/02 08:30:49;;;;;;;18.08;11.88;;;22.30;37.20;;;;;;6269494;27;83380;-63
2020/12/02 08:33:50;;;;;;;22.92;12.65;;;22.20;37.20;;;;;;6269837;27;83366;-62
2020/12/02 08:36:50;;;;;;;21.77;12.45;;;22.20;36.90;;;;;;6269203;27;83262;-65
2020/12/02 08:39:51;;;;;;;21.95;12.48;;;22.30;37.10;;;;;;6267602;27;84114;-62
2020/12/02 08:42:51;;;;;;;21.90;12.73;;;22.30;37.00;;;;;;6270119;27;84438;-67
2020/12/02 08:45:52;;;;;;;22.35;13.48;;;22.20;37.10;;;;;;6260026;27;84323;-69
2020/12/02 08:48:52;;;;;;;22.77;13.02;;;22.30;36.90;;;;;;6272169;27;83119;-68
2020/12/02 08:51:53;;;;;;;20.95;12.25;;;22.30;37.20;;;;;;6267825;27;83916;-66
2020/12/02 08:54:53;;;;;;;21.30;13.25;;;22.40;37.00;;;;;;6274511;27;83094;-67
2020/12/02 08:57:54;;;;;;;22.55;13.07;;;22.50;36.80;;;;;;6276212;27;83273;-62
2020/12/02 09:00:55;;;;;;;22.42;13.75;;;22.50;37.60;;;;;;6277737;27;82993;-62
2020/12/02 09:03:55;;;;;;;22.13;13.55;;;22.50;37.30;;;;;;6271378;27;83378;-63
2020/12/02 09:06:56;;;;;;;21.33;13.23;;;22.50;38.00;;;;;;6251238;27;84011;-62
2020/12/02 09:09:56;;;;;;;19.48;12.27;;;22.60;37.80;;;;;;6276899;27;83481;-65
2020/12/02 09:12:57;;;;;;;22.30;13.15;;;22.60;38.20;;;;;;6266128;27;83671;-66
2020/12/02 09:15:58;;;;;;;21.90;12.80;;;22.60;38.20;;;;;;6271127;27;83617;-62
2020/12/02 09:18:59;;;;;;;19.60;12.10;;;22.70;38.00;;;;;;6274849;27;84170;-62
2020/12/02 09:21:59;;;;;;;21.38;12.13;;;22.70;37.90;;;;;;6266322;27;85872;-63
2020/12/02 09:25:00;;;;;;;18.83;11.77;;;22.70;38.00;;;;;;6274991;27;84028;-62
2020/12/02 09:28:00;;;;;;;19.45;11.30;;;22.80;37.80;;;;;;6274565;27;85591;-63
2020/12/02 09:31:01;;;;;;;16.40;11.02;;;23.00;37.80;;;;;;6268211;27;84338;-64
2020/12/02 09:34:03;;;;;;;17.48;11.40;;;22.80;37.70;;;;;;6265990;27;83408;-63
2020/12/02 09:37:04;;;;;;;17.05;11.18;;;22.80;37.60;;;;;;6275869;27;83111;-63
2020/12/02 09:40:04;;;;;;;16.10;10.50;;;22.90;37.60;;;;;;6273056;27;83334;-64
2020/12/02 09:43:05;;;;;;;16.67;10.98;;;22.80;37.50;;;;;;6271816;27;85730;-63
2020/12/02 09:46:06;;;;;;;18.15;11.15;;;22.80;37.50;;;;;;6265952;27;85721;-62
2020/12/02 09:49:06;;;;;;;17.15;10.95;;;22.90;37.40;;;;;;6268407;27;84222;-63
2020/12/02 09:52:07;;;;;;;19.52;10.10;;;22.90;37.20;;;;;;6253360;27;84273;-63
2020/12/02 09:55:07;;;;;;;16.77;10.73;;;22.90;37.10;;;;;;6269618;27;83392;-62
2020/12/02 09:58:08;;;;;;;16.08;10.43;;;22.90;37.30;;;;;;6263500;27;83287;-62
2020/12/02 10:01:08;;;;;;;17.35;10.65;;;22.90;37.10;;;;;;6275665;27;83371;-62
2020/12/02 10:04:09;;;;;;;17.40;11.10;;;22.90;36.90;;;;;;6259766;27;84136;-63
2020/12/02 10:07:09;;;;;;;17.88;12.13;;;22.90;37.10;;;;;;6243485;27;83406;-63
2020/12/02 10:10:10;;;;;;;17.02;10.20;;;23.00;36.50;;;;;;6271975;27;83274;-64
2020/12/02 10:13:10;;;;;;;19.38;11.45;;;23.00;37.00;;;;;;6268509;27;83094;-63
2020/12/02 10:16:11;;;;;;;19.58;11.90;;;23.00;36.40;;;;;;6272685;27;82932;-63
2020/12/02 10:19:11;;;;;;;17.05;11.50;;;23.00;36.30;;;;;;6271743;27;86818;-64
2020/12/02 10:22:12;;;;;;;16.88;10.82;;;23.00;36.40;;;;;;6263653;27;83248;-62
2020/12/02 10:25:12;;;;;;;15.88;10.40;;;23.00;36.40;;;;;;6274981;27;83704;-63
2020/12/02 10:28:13;;;;;;;16.00;11.15;;;22.90;36.40;;;;;;6274199;27;83510;-62
2020/12/02 10:31:14;;;;;;;16.73;9.65;;;23.00;36.20;;;;;;6270653;27;82976;-63
2020/12/02 10:34:14;;;;;;;12.32;8.93;;;22.90;36.30;;;;;;6265965;27;82806;-64
2020/12/02 10:37:15;;;;;;;13.13;9.48;;;22.90;36.60;;;;;;6263470;27;81113;-63
2020/12/02 10:40:15;;;;;;;15.88;9.57;;;23.00;35.60;;;;;;6269366;27;80303;-64
2020/12/02 10:43:16;;;;;;;14.85;8.77;;;23.00;35.60;;;;;;6272224;27;81533;-63
2020/12/02 10:46:16;;;;;;;14.13;8.65;;;22.90;36.60;;;;;;6266431;27;80956;-63
2020/12/02 10:49:17;;;;;;;13.85;8.98;;;23.00;36.30;;;;;;6259053;27;83193;-66
2020/12/02 10:52:17;;;;;;;13.43;8.88;;;22.90;36.40;;;;;;6271368;27;84254;-65
2020/12/02 10:55:18;;;;;;;12.88;8.60;;;23.00;36.50;;;;;;6270292;27;80820;-66
2020/12/02 10:58:18;;;;;;;12.93;9.38;;;23.00;35.90;;;;;;6260898;27;80802;-63
2020/12/02 11:01:19;;;;;;;11.93;8.68;;;23.00;36.30;;;;;;6242451;27;80867;-64
2020/12/02 11:04:20;;;;;;;15.63;8.50;;;23.00;36.30;;;;;;6276100;27;80912;-64
2020/12/02 11:07:20;;;;;;;14.77;9.02;;;23.00;36.10;;;;;;6271144;27;80665;-63
2020/12/02 11:10:22;;;;;;;19.05;10.80;;;23.10;35.40;;;;;;6276681;27;81024;-63
2020/12/02 11:13:22;;;;;;;16.63;11.18;;;23.20;34.50;;;;;;6250241;27;83503;-63
2020/12/02 11:16:23;;;;;;;16.23;11.02;;;23.20;34.00;;;;;;6268588;27;83221;-63
2020/12/02 11:19:23;;;;;;;19.08;12.45;;;23.20;33.10;;;;;;6267291;27;83431;-63
2020/12/02 11:22:24;;;;;;;20.95;12.95;;;23.30;32.70;;;;;;6272426;27;82959;-63
2020/12/02 11:25:25;;;;;;;20.10;13.07;;;23.30;33.10;;;;;;6269810;27;84163;-63
2020/12/02 11:28:25;;;;;;;19.73;12.73;;;23.30;31.80;;;;;;6267544;27;83404;-63
2020/12/02 11:31:26;;;;;;;20.85;14.02;;;23.20;31.50;;;;;;6271503;27;86711;-61
2020/12/02 11:34:26;;;;;;;22.95;15.13;;;23.30;30.90;;;;;;6261735;27;83624;-62
2020/12/02 11:37:27;;;;;;;22.92;15.32;;;23.30;30.40;;;;;;6261628;27;83591;-62
2020/12/02 11:40:27;;;;;;;24.63;15.25;;;23.30;30.80;;;;;;6268029;27;85450;-62
2020/12/02 11:43:28;;;;;;;25.77;15.32;;;23.30;30.60;;;;;;6271493;27;84136;-62
2020/12/02 11:46:29;;;;;;;22.95;14.70;;;23.30;30.10;;;;;;6272086;27;82875;-62
2020/12/02 11:49:29;;;;;;;24.52;15.55;;;23.30;30.30;;;;;;6261110;27;83488;-63
2020/12/02 11:52:30;;;;;;;28.02;15.10;;;23.30;29.90;;;;;;6269814;27;83264;-64
2020/12/02 11:55:30;;;;;;;25.88;15.52;;;23.30;29.60;;;;;;6271738;27;83414;-64
2020/12/02 11:58:31;;;;;;;27.33;15.10;;;23.30;29.40;;;;;;6261987;27;83514;-63
2020/12/02 12:01:32;;;;;;;24.23;14.50;;;23.30;29.40;;;;;;6261997;27;83414;-65
2020/12/02 12:04:32;;;;;;;22.17;14.35;;;23.30;29.40;;;;;;6261292;27;83857;-63
2020/12/02 12:07:33;;;;;;;23.88;15.15;;;23.30;29.20;;;;;;6264230;27;84028;-63
2020/12/02 12:10:33;;;;;;;24.42;14.90;;;23.30;28.80;;;;;;6261083;27;84570;-63
2020/12/02 12:13:34;;;;;;;27.38;15.88;;;23.20;29.10;;;;;;6264105;27;83561;-63
2020/12/02 12:16:35;;;;;;;26.30;15.68;;;23.30;28.80;;;;;;6242747;27;83597;-63
2020/12/02 12:19:36;;;;;;;27.25;15.82;;;23.30;28.50;;;;;;6261751;27;90440;-62
2020/12/02 12:22:37;;;;;;;28.10;16.98;;;23.30;28.40;;;;;;6260293;27;83590;-61
2020/12/02 12:25:38;;;;;;;29.35;17.20;;;23.30;28.20;;;;;;6262794;27;83399;-61
2020/12/02 12:28:38;;;;;;;26.77;16.15;;;23.30;28.00;;;;;;6267319;27;82896;-61
2020/12/02 12:31:39;;;;;;;24.38;16.50;;;23.30;28.30;;;;;;6260671;27;86497;-62
2020/12/02 12:34:40;;;;;;;27.63;16.48;;;23.30;27.90;;;;;;6269470;27;83907;-62
2020/12/02 12:37:40;;;;;;;27.90;18.23;;;23.40;27.90;;;;;;6258033;27;83801;-62
2020/12/02 12:40:41;;;;;;;23.92;16.10;;;23.40;27.80;;;;;;6258720;27;83797;-62
2020/12/02 12:43:42;;;;;;;25.58;16.67;;;23.40;27.90;;;;;;6268215;27;83954;-62
2020/12/02 12:46:42;;;;;;;24.23;17.10;;;23.40;27.70;;;;;;6259808;27;83325;-63
2020/12/02 12:49:43;;;;;;;24.13;16.35;;;23.40;27.60;;;;;;6260348;27;83648;-61
2020/12/02 12:52:43;;;;;;;24.88;17.05;;;23.40;27.60;;;;;;6260476;27;84803;-63
2020/12/02 12:55:44;;;;;;;22.27;16.10;;;23.40;27.50;;;;;;6268541;27;83223;-62
2020/12/02 12:58:45;;;;;;;26.05;16.95;;;23.40;27.50;;;;;;6260182;27;83813;-62
2020/12/02 13:01:46;;;;;;;27.27;18.35;;;23.40;27.40;;;;;;6265113;27;85474;-62
2020/12/02 13:04:47;;;;;;;26.38;17.13;;;23.40;27.40;;;;;;6266360;27;83563;-62
2020/12/02 13:07:47;;;;;;;27.52;16.95;;;23.40;27.30;;;;;;6262966;27;83470;-63
2020/12/02 13:10:48;;;;;;;25.10;16.92;;;23.40;27.50;;;;;;6263414;27;83706;-62
2020/12/02 13:13:49;;;;;;;24.67;16.60;;;23.40;27.50;;;;;;6258868;27;85185;-60
2020/12/02 13:16:49;;;;;;;24.05;15.82;;;23.40;27.40;;;;;;6248023;27;84423;-62
2020/12/02 13:19:50;;;;;;;26.20;16.88;;;23.40;27.90;;;;;;6249840;27;83932;-62
2020/12/02 13:22:50;;;;;;;25.55;16.52;;;23.50;27.70;;;;;;6256657;27;83416;-59
2020/12/02 13:25:51;;;;;;;25.98;17.10;;;23.50;27.70;;;;;;6263936;27;83213;-60
2020/12/02 13:28:52;;;;;;;23.10;15.85;;;23.50;28.10;;;;;;6268153;27;84906;-61
2020/12/02 13:31:52;;;;;;;27.30;16.48;;;23.50;28.20;;;;;;6267243;27;85234;-61
2020/12/02 13:34:53;;;;;;;23.50;15.70;;;23.50;27.70;;;;;;6268265;27;84101;-62
2020/12/02 13:37:54;;;;;;;22.67;16.23;;;23.60;27.60;;;;;;6263249;27;85561;-62
2020/12/02 13:40:54;;;;;;;27.52;17.15;;;23.60;27.90;;;;;;6262428;27;83454;-62
2020/12/02 13:43:55;;;;;;;25.73;16.98;;;23.60;27.70;;;;;;6266547;27;82857;-61
2020/12/02 13:46:55;;;;;;;26.92;16.77;;;23.60;27.90;;;;;;6265272;27;84002;-61
2020/12/02 13:49:56;;;;;;;25.48;17.45;;;23.70;27.90;;;;;;6265083;27;88936;-59
2020/12/02 13:52:56;;;;;;;24.05;15.68;;;23.70;27.90;;;;;;6263380;27;83427;-60
2020/12/02 13:55:57;;;;;;;26.77;17.33;;;23.70;28.20;;;;;;6269697;27;87819;-60
2020/12/02 13:58:58;;;;;;;29.25;17.20;;;23.70;28.30;;;;;;6271528;27;84582;-60
2020/12/02 14:01:58;;;;;;;25.38;16.00;;;23.70;28.30;;;;;;6276116;27;83417;-61
2020/12/02 14:04:59;;;;;;;26.02;16.33;;;23.70;28.10;;;;;;6274750;27;84272;-61
2020/12/02 14:08:00;;;;;;;24.60;16.42;;;23.70;28.00;;;;;;6269919;27;83933;-61
2020/12/02 14:11:01;;;;;;;23.92;16.90;;;23.70;28.00;;;;;;6273711;27;83328;-62
2020/12/02 14:14:02;;;;;;;24.23;15.73;;;23.70;28.10;;;;;;6274901;27;83509;-62
2020/12/02 14:17:02;;;;;;;24.58;15.82;;;23.70;28.00;;;;;;6268139;27;84099;-61
2020/12/02 14:20:03;;;;;;;24.25;16.52;;;23.70;28.20;;;;;;6269207;27;84098;-61
2020/12/02 14:23:03;;;;;;;24.67;15.77;;;23.60;27.90;;;;;;6275571;27;83453;-61
2020/12/02 14:26:04;;;;;;;26.33;16.67;;;23.60;27.90;;;;;;6262366;27;83376;-61
2020/12/02 14:29:05;;;;;;;26.83;18.92;;;23.60;28.00;;;;;;6272176;27;83059;-61
2020/12/02 14:32:05;;;;;;;27.70;17.65;;;23.60;27.90;;;;;;6255626;27;83982;-60
2020/12/02 14:35:06;;;;;;;27.38;17.70;;;23.60;28.20;;;;;;6260499;27;87620;-60
2020/12/02 14:38:06;;;;;;;27.45;17.05;;;23.50;28.60;;;;;;6274094;27;83440;-60
2020/12/02 14:41:09;;;;;;;26.25;16.65;;;23.50;28.30;;;;;;6267406;27;83428;-60
2020/12/02 14:44:09;;;;;;;25.42;17.20;;;23.50;28.40;;;;;;6268992;27;83654;-61
2020/12/02 14:47:10;;;;;;;26.38;17.85;;;23.50;28.50;;;;;;6268837;27;84480;-61
2020/12/02 14:50:11;;;;;;;29.13;18.10;;;23.40;28.50;;;;;;6267889;27;89885;-60
2020/12/02 14:53:11;;;;;;;30.15;17.92;;;23.40;28.50;;;;;;6273767;27;83716;-60
2020/12/02 14:56:12;;;;;;;28.23;17.95;;;23.40;28.80;;;;;;6262033;27;83749;-60
2020/12/02 14:59:12;;;;;;;30.02;18.00;;;23.40;28.50;;;;;;6264192;27;83164;-60
2020/12/02 15:02:13;;;;;;;28.50;18.77;;;23.30;28.50;;;;;;6264532;27;83848;-60
2020/12/02 15:05:14;;;;;;;29.02;18.73;;;23.20;28.60;;;;;;6270661;27;84132;-60
2020/12/02 15:08:14;;;;;;;27.80;17.45;;;23.20;28.50;;;;;;6267153;27;83118;-60
2020/12/02 15:11:15;;;;;;;27.65;17.27;;;23.20;28.30;;;;;;6266775;27;83505;-60
2020/12/02 15:14:15;;;;;;;33.60;19.33;;;23.20;28.70;;;;;;6262841;27;84057;-60
2020/12/02 15:17:16;;;;;;;27.55;18.38;;;23.20;28.40;;;;;;6266311;27;85323;-60